createdAt,value
2022-11-07T09:38:26.259Z,11.91
2022-11-07T09:41:17.856Z,12.01
2022-11-07T09:43:50.173Z,12.07
2022-11-07T09:46:19.703Z,12.02
2022-11-07T09:48:49.460Z,12.03
2022-11-07T09:51:38.676Z,12.12
2022-11-07T09:54:25.573Z,12.26
2022-11-07T09:56:54.158Z,12.35
2022-11-07T09:59:25.395Z,12.41
2022-11-07T10:01:52.206Z,12.45
2022-11-07T10:04:26.208Z,12.47
2022-11-07T10:06:55.959Z,12.36
2022-11-07T10:09:31.356Z,12.36
2022-11-07T10:12:07.655Z,12.36
2022-11-07T10:15:07.093Z,12.37
2022-11-07T10:18:02.240Z,12.36
2022-11-07T10:21:05.461Z,12.40
2022-11-07T10:23:52.577Z,12.45
2022-11-07T10:26:22.037Z,12.46
2022-11-07T10:28:53.467Z,12.44
2022-11-07T10:31:20.104Z,12.45
2022-11-07T10:33:54.984Z,12.44
2022-11-07T10:36:25.074Z,12.46
2022-11-07T10:38:52.827Z,12.49
2022-11-07T10:41:27.570Z,12.54
2022-11-07T10:44:08.132Z,12.51
2022-11-07T10:46:41.766Z,12.53
2022-11-07T10:49:26.267Z,12.48
2022-11-07T10:51:54.394Z,12.53
2022-11-07T10:54:30.858Z,12.43
2022-11-07T10:57:10.246Z,12.46
2022-11-07T10:59:37.723Z,12.49
2022-11-07T11:02:20.666Z,12.44
2022-11-07T11:04:54.668Z,12.38
2022-11-07T11:07:28.344Z,12.47
2022-11-07T11:09:57.871Z,12.44
2022-11-07T11:12:33.337Z,12.49
2022-11-07T11:15:12.650Z,12.44
2022-11-07T11:17:40.015Z,12.52
2022-11-07T11:20:23.482Z,12.63
2022-11-07T11:22:50.087Z,12.71
2022-11-07T11:25:19.596Z,12.72
2022-11-07T11:27:49.605Z,12.75
2022-11-07T11:30:19.363Z,12.78
2022-11-07T11:32:53.349Z,12.75
2022-11-07T11:35:28.742Z,12.73
2022-11-07T11:38:20.114Z,12.66
2022-11-07T11:41:01.558Z,12.59
2022-11-07T11:43:41.469Z,12.56
2022-11-07T11:46:42.972Z,12.53
2022-11-07T11:49:18.338Z,12.62
2022-11-07T11:52:00.712Z,12.63
2022-11-07T11:54:27.350Z,12.63
2022-11-07T11:56:58.998Z,12.68
2022-11-07T11:59:44.254Z,12.71
2022-11-07T12:02:25.890Z,12.78
2022-11-07T12:05:04.478Z,12.76
2022-11-07T12:08:03.233Z,12.77
2022-11-07T12:10:44.371Z,12.72
2022-11-07T12:13:32.433Z,12.72
2022-11-07T12:16:32.703Z,12.74
2022-11-07T12:19:09.782Z,12.73
2022-11-07T12:22:31.994Z,12.83
2022-11-07T12:24:58.510Z,12.81
2022-11-07T12:27:47.895Z,12.89
2022-11-07T12:30:29.536Z,12.85
2022-11-07T12:32:59.110Z,12.86
2022-11-07T12:36:18.015Z,12.90
2022-11-07T12:39:21.411Z,12.84
2022-11-07T12:42:08.058Z,12.91
2022-11-07T12:45:21.395Z,12.84
2022-11-07T12:48:26.164Z,12.92
2022-11-07T12:51:21.002Z,12.93
2022-11-07T12:53:50.222Z,12.87
2022-11-07T12:56:31.808Z,12.93
2022-11-07T12:59:00.699Z,12.91
2022-11-07T13:01:40.867Z,12.91
2022-11-07T13:04:18.588Z,13.02
2022-11-07T13:07:19.497Z,12.97
2022-11-07T13:09:54.991Z,12.96
2022-11-07T13:12:44.721Z,12.88
2022-11-07T13:15:13.438Z,13.02
2022-11-07T13:17:46.066Z,13.00
2022-11-07T13:20:21.765Z,12.98
2022-11-07T13:22:50.655Z,13.01
2022-11-07T13:25:17.722Z,13.05
2022-11-07T13:28:04.885Z,13.04
2022-11-07T13:30:35.289Z,13.04
2022-11-07T13:33:02.884Z,13.04
2022-11-07T13:35:32.458Z,13.00
2022-11-07T13:38:14.806Z,13.01
2022-11-07T13:40:49.016Z,13.00
2022-11-07T13:43:24.271Z,12.86
2022-11-07T13:45:55.874Z,13.02
2022-11-07T13:49:06.783Z,12.97
2022-11-07T13:51:42.739Z,13.01
2022-11-07T13:54:40.355Z,13.03
2022-11-07T13:57:31.537Z,12.81
2022-11-07T14:00:14.587Z,12.77
2022-11-07T14:02:51.444Z,12.81
2022-11-07T14:05:21.125Z,12.79
2022-11-07T14:08:18.864Z,12.77
2022-11-07T14:10:48.508Z,12.85
2022-11-07T14:13:41.336Z,12.79
2022-11-07T14:16:15.572Z,12.76
2022-11-07T14:18:56.826Z,12.86
2022-11-07T14:21:28.125Z,12.70
2022-11-07T14:23:55.148Z,12.63
2022-11-07T14:26:30.856Z,12.60
2022-11-07T14:29:00.679Z,12.66
2022-11-07T14:31:32.898Z,12.58
2022-11-07T14:34:03.089Z,12.64
2022-11-07T14:36:30.502Z,12.67
2022-11-07T14:39:03.856Z,12.64
2022-11-07T14:41:30.763Z,12.72
2022-11-07T14:44:02.054Z,12.66
2022-11-07T14:46:28.833Z,12.63
2022-11-07T14:48:55.731Z,12.67
2022-11-07T14:51:26.232Z,12.69
2022-11-07T14:53:52.742Z,12.65
2022-11-07T14:56:23.805Z,12.63
2022-11-07T14:58:50.547Z,12.56
2022-11-07T15:01:34.531Z,12.49
2022-11-07T15:04:27.146Z,12.51
2022-11-07T15:06:53.704Z,12.58
2022-11-07T15:09:30.997Z,12.51
2022-11-07T15:11:59.370Z,12.55
2022-11-07T15:14:35.713Z,12.48
2022-11-07T15:17:06.041Z,12.50
2022-11-07T15:19:35.157Z,12.49
2022-11-07T15:22:04.508Z,12.44
2022-11-07T15:24:33.316Z,12.43
2022-11-07T15:27:06.251Z,12.43
2022-11-07T15:29:36.087Z,12.40
2022-11-07T15:32:15.548Z,12.38
2022-11-07T15:35:00.737Z,12.27
2022-11-07T15:37:28.957Z,12.26
2022-11-07T15:39:55.639Z,12.29
2022-11-07T15:42:22.234Z,12.26
2022-11-07T15:44:48.819Z,12.23
2022-11-07T15:47:19.323Z,12.22
2022-11-07T15:49:46.682Z,12.18
2022-11-07T15:52:13.541Z,12.15
2022-11-07T15:54:40.274Z,12.20
2022-11-07T15:57:08.179Z,12.19
2022-11-07T15:59:37.112Z,12.15
2022-11-07T16:02:04.582Z,12.13
2022-11-07T16:04:33.386Z,12.09
2022-11-07T16:07:03.254Z,12.16
2022-11-07T16:09:32.898Z,12.09
2022-11-07T16:11:59.547Z,12.10
2022-11-07T16:17:18.253Z,12.10
2022-11-07T16:19:45.083Z,12.09
2022-11-07T16:22:16.112Z,12.07
2022-11-07T16:24:42.840Z,12.04
2022-11-07T16:27:15.916Z,12.05
2022-11-07T16:29:44.242Z,12.09
2022-11-07T16:32:17.943Z,12.10
2022-11-07T16:34:45.609Z,12.02
2022-11-07T16:37:12.501Z,12.05
2022-11-07T16:39:39.115Z,12.05
2022-11-07T16:42:05.956Z,12.03
2022-11-07T16:44:32.607Z,12.05
2022-11-07T16:47:05.719Z,12.06
2022-11-07T16:49:33.665Z,12.00
2022-11-07T16:52:00.396Z,12.01
2022-11-07T16:54:27.002Z,11.99
